Αναφορές METAR από Ελληνικά Αεροδρόμια

Σε αυτή τη σελίδα, μπορείτε να παρακολουθείτε τις αναφορές METAR που προέρχονται από τα κυριότερα αεροδρόμια της Ελλάδας. Το περιεχόμενο αποκωδικοποιείται, οπτικοποιείται και γίνεται κατανοητό από τον καθένα με τη χρήση του όμορφου δίγλωσσου γραφικού περιβάλλοντος του meteothes.gr!

Η αρχική κωδικοποιημένη αναφορά, συμπεριλαμβάνεται επίσης στο κάτω μέρος. Σε όποια καθεστερεί η ενημέρωση, το προειδοποιητικό μήνυμα "Μη ενημερωμένο METAR!" εμφανίζεται στο πάνω μέρος της με κόκκινα γράμματα.

Εχουν προστεθεί επίσης δύο αεροδρόμια από γειτονικές χώρες, την Οχρίδα(ΠΓΔΜ) και την Σόφια(Βουλγαρία) για να ελέγχουμε την εξέλιξη των ψυχρών εισβολών από τα Βόρεια!

LGTS - Thessaloniki/Makedonia-Elev 7m
Απόσταση από meteothes.gr: Ν 13km
Ενημερώθηκε: 30/04/2017 17:50
Μερικώς νεφελώδης
Μερικώς νεφελώδης
 Ανεμος από ΒΔ
Ανεμος: ΒΔ 15 km/h
Θερμοκρασία: 19°C
Σημ. Δρόσου: 14°C
Υγρασία: 73%
Βαρόμετρο: 1011 hPa
Νέφωση: Μερικώς νεφελώδης
Ορατότητα: 10 km
Λεπτομέρειες Νεφών: Διάσπαρτα Nέφη 762 m
Μερικώς νεφελώδης 1219 m
2017/04/30 14:50 LGTS 301450Z 31008KT 9999 FEW025TCU SCT040 19/14 Q1011 NOSIG
LGAV - Athens/Elef. Venizelos-Elev 94m
Απόσταση από meteothes.gr: ΝΝΑ 312km
Ενημερώθηκε: 30/04/2017 17:50
Διάσπαρτα Nέφη
Διάσπαρτα Nέφη
 Ανεμος από ΒΒΑ
Ανεμος: ΒΒΑ 30 km/h
Θερμοκρασία: 20°C
Σημ. Δρόσου: 11°C
Υγρασία: 56%
Βαρόμετρο: 1008 hPa
Νέφωση: Διάσπαρτα Nέφη
Ορατότητα: 10 km
Λεπτομέρειες Νεφών: Διάσπαρτα Nέφη 610 m
2017/04/30 14:50 LGAV 301450Z 02016KT 9999 FEW020 20/11 Q1008 NOSIG
 
LGAL - Alexandroupolis-Elev 3m
Απόσταση από meteothes.gr: Α 251km
Ενημερώθηκε: 30/04/2017 17:50
Διάσπαρτα Nέφη
Διάσπαρτα Nέφη
 Ανεμος από ΒΒΑ
Ανεμος: ΒΒΑ 19 km/h
Θερμοκρασία: 26°C
Σημ. Δρόσου: 10°C
Υγρασία: 37%
Βαρόμετρο: 1009 hPa
Νέφωση: Διάσπαρτα Nέφη
Ορατότητα: 10 km
Λεπτομέρειες Νεφών: Διάσπαρτα Nέφη 914 m
2017/04/30 14:50 LGAL 301450Z 02010KT 9999 FEW030 26/10 Q1009
LGKV - Kavala/Crysoupolis-Elev 5m
Απόσταση από meteothes.gr: ΑΒΑ 144km
Ενημερώθηκε: 30/04/2017 17:50
κυρίως νεφελώδης
κυρίως νεφελώδης
 Ανεμος από άπνοια
Ανεμος: άπνοια
Θερμοκρασία: 19°C
Σημ. Δρόσου: 14°C
Υγρασία: 73%
Βαρόμετρο: 1010 hPa
Νέφωση: κυρίως νεφελώδης
Ορατότητα: 10 km
Λεπτομέρειες Νεφών: Διάσπαρτα Nέφη 1067 m
κυρίως νεφελώδης 2438 m
2017/04/30 14:50 LGKV 301450Z 00000KT 9999 FEW035 BKN080 19/14 Q1010
 
LGSK - Skiathos Island-Elev 15m
Απόσταση από meteothes.gr: ΝΝΑ 168km
Ενημερώθηκε: 30/04/2017 17:50
Αίθριος
Αίθριος
 Ανεμος από Β
Ανεμος: Β 13 km/h
Θερμοκρασία: 18°C
Σημ. Δρόσου: 15°C
Υγρασία: 83%
Βαρόμετρο: 1010 hPa
Συνθήκες: Αίθριος
Ορατότητα: πάνω από 10 km
2017/04/30 14:50 LGSK 301450Z 35007KT CAVOK 18/15 Q1010
LGLM - Limnos Island-Elev 5m
Απόσταση από meteothes.gr: ΑΝΑ 210km
Ενημερώθηκε: 30/04/2017 16:50
Διάσπαρτα Nέφη
Διάσπαρτα Nέφη
 Ανεμος από Β
Ανεμος: Β 19 km/h
Θερμοκρασία: 21°C
Σημ. Δρόσου: 12°C
Υγρασία: 57%
Βαρόμετρο: 1009 hPa
Νέφωση: Διάσπαρτα Nέφη
Ορατότητα: 10 km
Λεπτομέρειες Νεφών: Διάσπαρτα Nέφη 762 m
2017/04/30 13:50 LGLM 301350Z 36010KT 9999 FEW025 21/12 Q1009
 
LGMT - Mitilini Island-Elev 17m
Απόσταση από meteothes.gr: ΑΝΑ 358km
Ενημερώθηκε: 30/04/2017 17:50
Αίθριος
Αίθριος
 Ανεμος από άπνοια
Ανεμος: άπνοια
Θερμοκρασία: 24°C
Σημ. Δρόσου: 14°C
Υγρασία: 54%
Βαρόμετρο: 1009 hPa
Συνθήκες: Αίθριος
Ορατότητα: πάνω από 10 km
2017/04/30 14:50 LGMT 301450Z 00000KT CAVOK 24/14 Q1009
LGSY - Skiros Island-Elev 15m
Απόσταση από meteothes.gr: ΝΑ 227km
Ενημερώθηκε: 30/04/2017 16:50
Μερικώς νεφελώδης
Μερικώς νεφελώδης
 Ανεμος από μεταβλητός
Ανεμος: μεταβλητός 6 km/h
Θερμοκρασία: 20°C
Σημ. Δρόσου: 13°C
Υγρασία: 64%
Βαρόμετρο: 1008 hPa
Νέφωση: Μερικώς νεφελώδης
Ορατότητα: 10 km
Λεπτομέρειες Νεφών: Διάσπαρτα Nέφη 610 m
Μερικώς νεφελώδης 1219 m
2017/04/30 13:50 LGSY 301350Z VRB03KT 9999 FEW020 SCT040 20/13 Q1008 RMK SCT080 BKN180 BLU
 
LGKZ - Kozani-Elev 628m
Απόσταση από meteothes.gr: ΔΝΔ 102km
Ενημερώθηκε: 30/04/2017 17:50
κυρίως νεφελώδης
κυρίως νεφελώδης
 Ανεμος από Α
Ανεμος: Α 13 km/h
Θερμοκρασία: 21°C
Σημ. Δρόσου: 10°C
Υγρασία: 50%
Βαρόμετρο: 1011 hPa
Νέφωση: κυρίως νεφελώδης
Ορατότητα: 10 km
Λεπτομέρειες Νεφών: Διάσπαρτα Nέφη 914 m
Μερικώς νεφελώδης 2134 m
κυρίως νεφελώδης 5182 m
2017/04/30 14:50 LGKZ 301450Z 08007KT 9999 FEW030 SCT070 BKN170 21/10 Q1011
LGIO - Ioannina-Elev 476m
Απόσταση από meteothes.gr: ΔΝΔ 209km
Ενημερώθηκε: 30/04/2017 13:50
ΜΗ Ενημερωμένο METAR!
Συννεφιά
Συννεφιά
 Ανεμος από μεταβλητός
Ανεμος: μεταβλητός 0 km/h
Θερμοκρασία: 26°C
Σημ. Δρόσου: 7°C
Υγρασία: 30%
Βαρόμετρο: 1010 hPa
Νέφωση: Συννεφιά
Ορατότητα: 10 km
Λεπτομέρειες Νεφών: Μερικώς νεφελώδης 1829 m
Συννεφιά 4877 m
2017/04/30 10:50 LGIO 301050Z /////KT 9999 SCT060 OVC160 26/07 Q1010
 
LGZA - Zakinthos-Elev 3m
Απόσταση από meteothes.gr: ΝΝΔ 367km
Ενημερώθηκε: 30/04/2017 17:50
Μερικώς νεφελώδης
Μερικώς νεφελώδης
 Ανεμος από ΒΑ
Ανεμος: ΒΑ 9 km/h
Θερμοκρασία: 21°C
Σημ. Δρόσου: 15°C
Υγρασία: 69%
Βαρόμετρο: 1007 hPa
Νέφωση: Μερικώς νεφελώδης
Ορατότητα: 10 km
Λεπτομέρειες Νεφών: Μερικώς νεφελώδης 762 m
2017/04/30 14:50 LGZA 301450Z 04005KT 9999 SCT025 21/15 Q1007
LGKR - Corfu Island-Elev 2m
Απόσταση από meteothes.gr: ΔΝΔ 282km
Ενημερώθηκε: 30/04/2017 17:50
Αίθριος
Αίθριος
 Ανεμος από ΒΔ
Ανεμος: ΒΔ 22 km/h
Θερμοκρασία: 22°C
Σημ. Δρόσου: 11°C
Υγρασία: 50%
Βαρόμετρο: 1007 hPa
Συνθήκες: Αίθριος
Ορατότητα: πάνω από 10 km
2017/04/30 14:50 LGKR 301450Z 32012KT CAVOK 22/11 Q1007 NOSIG
 
LGSO - Syros Island-Elev 72m
Απόσταση από meteothes.gr: ΝΝΑ 397km
Ενημερώθηκε: 30/04/2017 17:50
Αίθριος
Αίθριος
 Ανεμος από ΒΑ
Ανεμος: ΒΑ 7 km/h
Θερμοκρασία: 20°C
Σημ. Δρόσου: 13°C
Υγρασία: 64%
Βαρόμετρο: 1008 hPa
Συνθήκες: Αίθριος
Ορατότητα: πάνω από 10 km
2017/04/30 14:50 LGSO 301450Z 04004KT CAVOK 20/13 Q1008
LGMK - Mikonos Island-Elev 123m
Απόσταση από meteothes.gr: ΝΝΑ 412km
Ενημερώθηκε: 30/04/2017 17:50
Αίθριος
Αίθριος
 Ανεμος από μεταβλητός
Ανεμος: μεταβλητός 0 km/h
Θερμοκρασία: 21°C
Σημ. Δρόσου: 12°C
Υγρασία: 57%
Βαρόμετρο: 1007 hPa
Συνθήκες: Αίθριος
Ορατότητα: πάνω από 10 km
2017/04/30 14:50 LGMK 301450Z /////KT CAVOK 21/12 Q1007
 
LGSR - Santorini Island-Elev 40m
Απόσταση από meteothes.gr: ΝΝΑ 520km
Ενημερώθηκε: 30/04/2017 17:50
Αίθριος
Αίθριος
 Ανεμος από ΝΝΑ
Ανεμος: ΝΝΑ 13 km/h
Θερμοκρασία: 21°C
Σημ. Δρόσου: 14°C
Υγρασία: 64%
Βαρόμετρο: 1006 hPa
Συνθήκες: Αίθριος
Ορατότητα: πάνω από 10 km
2017/04/30 14:50 LGSR 301450Z 16007KT 110V210 CAVOK 21/14 Q1006
LGKL - Kalamata-Elev 8m
Απόσταση από meteothes.gr: Ν 405km
Ενημερώθηκε: 30/04/2017 17:50
κυρίως νεφελώδης
κυρίως νεφελώδης
 Ανεμος από άπνοια
Ανεμος: άπνοια
Θερμοκρασία: 20°C
Σημ. Δρόσου: 14°C
Υγρασία: 69%
Βαρόμετρο: 1007 hPa
Νέφωση: κυρίως νεφελώδης
Ορατότητα: 7 km
Λεπτομέρειες Νεφών: Μερικώς νεφελώδης 762 m
κυρίως νεφελώδης 2134 m
2017/04/30 14:50 LGKL 301450Z 00000KT 7000 SCT025 BKN070 20/14 Q1007
 
LGIR - Iraklion/Crete-Elev 5m
Απόσταση από meteothes.gr: ΝΝΑ 622km
Ενημερώθηκε: 30/04/2017 17:20
Διάσπαρτα Nέφη
Διάσπαρτα Nέφη
 Ανεμος από ΔΒΔ
Ανεμος: ΔΒΔ 28 km/h
Θερμοκρασία: 25°C
Σημ. Δρόσου: 18°C
Υγρασία: 65%
Βαρόμετρο: 1007 hPa
Νέφωση: Διάσπαρτα Nέφη
Ορατότητα: 10 km
Λεπτομέρειες Νεφών: Διάσπαρτα Nέφη 762 m
2017/04/30 14:20 LGIR 301420Z 30015KT 9999 FEW025 25/18 Q1007 NOSIG
LGRP - Rhodes-Elev 5m
Απόσταση από meteothes.gr: ΝΑ 649km
Ενημερώθηκε: 30/04/2017 17:50
Μερικώς νεφελώδης
Μερικώς νεφελώδης
 Ανεμος από Α
Ανεμος: Α 11 km/h
Θερμοκρασία: 24°C
Σημ. Δρόσου: 7°C
Υγρασία: 34%
Βαρόμετρο: 1008 hPa
Νέφωση: Μερικώς νεφελώδης
Ορατότητα: 10 km
Λεπτομέρειες Νεφών: Μερικώς νεφελώδης 610 m
2017/04/30 14:50 LGRP 301450Z 08006KT 050V120 9999 SCT020 24/07 Q1008 NOSIG
 
LWOH - Ohrid/FYROM-Elev 761m
Απόσταση από meteothes.gr: ΔΒΔ 188km
Ενημερώθηκε: 30/04/2017 15:00
ΜΗ Ενημερωμένο METAR!
κυρίως νεφελώδης
κυρίως νεφελώδης
 Ανεμος από Β
Ανεμος: Β 20 km/h
Θερμοκρασία: 18°C
Σημ. Δρόσου: 9°C
Υγρασία: 56%
Βαρόμετρο: 1011 hPa
Νέφωση: κυρίως νεφελώδης
Ορατότητα: 10 km
Λεπτομέρειες Νεφών: Διάσπαρτα Nέφη 1219 m
κυρίως νεφελώδης 1524 m
2017/04/30 12:00 LWOH 301200Z 35011KT 9999 FEW040 BKN050 18/09 Q1011
LBSF - Sofia/Bulgaria-Elev 595m
Απόσταση από meteothes.gr: Β 227km
Ενημερώθηκε: 30/04/2017 17:30
Συννεφιά
Συννεφιά
 Ανεμος από ΒΔ
Ανεμος: ΒΔ 7 km/h
Θερμοκρασία: 12°C
Σημ. Δρόσου: 10°C
Υγρασία: 88%
Βαρόμετρο: 1015 hPa
Νέφωση: Συννεφιά
Ορατότητα: 10 km
Λεπτομέρειες Νεφών: Μερικώς νεφελώδης 518 m
Συννεφιά 732 m
2017/04/30 14:30 LBSF 301430Z 31004KT 9999 SCT017 OVC024 12/10 Q1015 NOSIG

(*) Μερικές αναφορές παρουσιάζουν λιγότερα στοιχεία γιατί οι αρχικές είναι ελλιπείς ή έχουν λάθος μορφοποίηση!